createdAt,value
2019-01-27T00:00:46.483Z,93.50
2019-01-27T00:01:46.476Z,83.20
2019-01-27T00:02:46.397Z,89.30
2019-01-27T00:03:46.397Z,75.00
2019-01-27T00:04:46.389Z,81.20
2019-01-27T00:05:46.398Z,81.50
2019-01-27T00:06:46.399Z,84.10
2019-01-27T00:07:46.542Z,92.30
2019-01-27T00:08:46.349Z,85.50
2019-01-27T00:09:46.317Z,67.90
2019-01-27T00:10:46.315Z,70.80
2019-01-27T00:11:46.338Z,73.20
2019-01-27T00:12:46.346Z,66.70
2019-01-27T00:13:46.282Z,102.30
2019-01-27T00:14:46.259Z,85.40
2019-01-27T00:15:46.258Z,88.00
2019-01-27T00:16:46.262Z,68.60
2019-01-27T00:17:46.231Z,83.00
2019-01-27T00:18:46.284Z,70.20
2019-01-27T00:19:46.226Z,69.00
2019-01-27T00:20:46.199Z,68.70
2019-01-27T00:21:46.209Z,66.20
2019-01-27T00:22:46.186Z,69.40
2019-01-27T00:23:46.207Z,61.00
2019-01-27T00:24:46.178Z,61.60
2019-01-27T00:25:46.157Z,63.00
2019-01-27T00:26:46.153Z,52.10
2019-01-27T00:27:46.137Z,55.90
2019-01-27T00:28:46.124Z,56.40
2019-01-27T00:29:46.149Z,53.40
2019-01-27T00:30:46.138Z,56.90
2019-01-27T00:31:46.089Z,48.40
2019-01-27T00:32:46.080Z,52.10
2019-01-27T00:33:46.073Z,48.20
2019-01-27T00:34:46.068Z,50.70
2019-01-27T00:35:46.065Z,50.90
2019-01-27T00:36:46.157Z,45.10
2019-01-27T00:37:46.087Z,44.30
2019-01-27T00:38:46.015Z,49.60
2019-01-27T00:39:46.007Z,43.30
2019-01-27T00:40:46.014Z,45.50
2019-01-27T00:41:46.022Z,43.40
2019-01-27T00:42:45.968Z,44.20
2019-01-27T00:43:45.983Z,45.30
2019-01-27T00:44:45.965Z,39.70
2019-01-27T00:45:45.939Z,49.30
2019-01-27T00:46:45.953Z,38.00
2019-01-27T00:47:45.912Z,38.10
2019-01-27T00:48:45.911Z,45.60
2019-01-27T00:49:45.902Z,38.40
2019-01-27T00:50:45.885Z,49.50
2019-01-27T00:51:45.886Z,43.10
2019-01-27T00:52:45.887Z,42.80
2019-01-27T00:53:45.899Z,38.20
2019-01-27T00:54:45.848Z,51.70
2019-01-27T00:55:45.838Z,35.80
2019-01-27T00:56:45.824Z,40.20
2019-01-27T00:57:45.861Z,42.70
2019-01-27T00:58:45.848Z,35.20
2019-01-27T00:59:45.830Z,38.20
2019-01-27T01:00:45.784Z,34.70
2019-01-27T01:01:45.770Z,31.60
2019-01-27T01:02:45.791Z,34.10
2019-01-27T01:03:45.760Z,43.60
2019-01-27T01:04:45.786Z,36.90
2019-01-27T01:05:45.731Z,49.10
2019-01-27T01:06:45.724Z,59.70
2019-01-27T01:07:45.740Z,36.60
2019-01-27T01:08:45.695Z,43.70
2019-01-27T01:09:45.689Z,42.10
2019-01-27T01:10:45.690Z,41.30
2019-01-27T01:11:45.672Z,41.30
2019-01-27T01:12:45.659Z,44.00
2019-01-27T01:13:45.705Z,42.70
2019-01-27T01:14:45.674Z,45.90
2019-01-27T01:15:45.643Z,38.80
2019-01-27T01:16:45.626Z,43.60
2019-01-27T01:17:45.665Z,44.60
2019-01-27T01:18:45.596Z,48.10
2019-01-27T01:19:45.613Z,42.40
2019-01-27T01:20:45.607Z,42.80
2019-01-27T01:21:45.585Z,50.70
2019-01-27T01:22:45.546Z,48.10
2019-01-27T01:23:45.531Z,46.40
2019-01-27T01:24:45.598Z,45.90
2019-01-27T01:25:45.512Z,53.50
2019-01-27T01:26:45.521Z,51.40
2019-01-27T01:27:45.526Z,47.90
2019-01-27T01:28:45.538Z,48.80
2019-01-27T01:29:45.470Z,50.00
2019-01-27T01:30:45.485Z,56.80
2019-01-27T01:31:45.462Z,49.40
2019-01-27T01:32:45.462Z,48.10
2019-01-27T01:33:45.457Z,55.10
2019-01-27T01:34:45.430Z,50.40
2019-01-27T01:35:45.450Z,52.60
2019-01-27T01:36:45.428Z,60.60
2019-01-27T01:37:45.395Z,54.10
2019-01-27T01:38:45.439Z,55.60
2019-01-27T01:39:45.374Z,59.60
2019-01-27T01:40:45.367Z,53.50
2019-01-27T01:41:45.880Z,63.20
2019-01-27T01:42:45.354Z,55.70
2019-01-27T01:43:45.327Z,56.40
2019-01-27T01:44:45.335Z,57.20
2019-01-27T01:45:45.337Z,64.00
2019-01-27T01:46:45.313Z,63.00
2019-01-27T01:47:45.323Z,52.70
2019-01-27T01:48:45.269Z,54.10
2019-01-27T01:49:45.304Z,75.60
2019-01-27T01:50:45.264Z,54.50
2019-01-27T01:51:45.244Z,63.90
2019-01-27T01:52:45.274Z,56.10
2019-01-27T01:53:45.247Z,53.80
2019-01-27T01:54:45.216Z,56.90
2019-01-27T01:55:45.215Z,50.30
2019-01-27T01:56:45.208Z,49.30
2019-01-27T01:57:45.210Z,50.10
2019-01-27T01:58:45.199Z,52.70
2019-01-27T01:59:45.163Z,59.50
2019-01-27T02:00:45.146Z,57.10
2019-01-27T02:01:45.136Z,58.00
2019-01-27T02:02:45.136Z,68.30
2019-01-27T02:03:45.118Z,51.70
2019-01-27T02:04:45.128Z,53.50
2019-01-27T02:05:45.101Z,50.50
2019-01-27T02:06:45.085Z,71.70
2019-01-27T02:07:45.098Z,56.40
2019-01-27T02:08:45.089Z,63.60
2019-01-27T02:09:45.058Z,59.00
2019-01-27T02:10:45.132Z,48.50
2019-01-27T02:11:45.036Z,45.60
2019-01-27T02:12:45.025Z,47.70
2019-01-27T02:13:45.176Z,62.70
2019-01-27T02:14:45.023Z,51.90
2019-01-27T02:15:45.038Z,52.00
2019-01-27T02:16:45.005Z,52.60
2019-01-27T02:17:45.004Z,50.70
2019-01-27T02:18:44.955Z,53.50
2019-01-27T02:19:44.992Z,45.60
2019-01-27T02:20:44.966Z,45.40
2019-01-27T02:21:44.975Z,47.40
2019-01-27T02:22:44.918Z,43.00
2019-01-27T02:23:44.990Z,39.50
2019-01-27T02:24:44.914Z,45.10
2019-01-27T02:25:44.907Z,43.90
2019-01-27T02:26:44.877Z,43.00
2019-01-27T02:27:44.931Z,41.30
2019-01-27T02:28:44.852Z,34.30
2019-01-27T02:29:44.859Z,39.90
2019-01-27T02:30:44.831Z,35.00
2019-01-27T02:31:44.846Z,36.60
2019-01-27T02:32:44.836Z,39.40
2019-01-27T02:33:44.814Z,37.90
2019-01-27T02:34:44.792Z,42.50
2019-01-27T02:35:44.807Z,39.90
2019-01-27T02:36:44.772Z,36.50
2019-01-27T02:37:44.778Z,35.60
2019-01-27T02:38:44.772Z,32.00
2019-01-27T02:39:44.749Z,33.30
2019-01-27T02:40:44.740Z,31.60
2019-01-27T02:41:44.722Z,32.40
2019-01-27T02:42:44.820Z,38.10
2019-01-27T02:43:44.721Z,36.40
2019-01-27T02:44:44.695Z,36.50
2019-01-27T02:45:44.671Z,32.10
2019-01-27T02:46:44.685Z,34.00
2019-01-27T02:47:44.675Z,37.80
2019-01-27T02:48:44.651Z,34.60
2019-01-27T02:49:44.678Z,30.40
2019-01-27T02:50:44.624Z,38.10
2019-01-27T02:51:44.617Z,34.70
2019-01-27T02:52:44.609Z,36.40
2019-01-27T02:53:44.617Z,30.80
2019-01-27T02:54:44.625Z,29.80
2019-01-27T02:55:44.577Z,33.40
2019-01-27T02:56:44.562Z,31.50
2019-01-27T02:57:44.566Z,29.30
2019-01-27T02:58:44.562Z,30.50
2019-01-27T02:59:44.564Z,27.20
2019-01-27T03:00:44.563Z,27.40
2019-01-27T03:01:44.530Z,30.60
2019-01-27T03:02:44.499Z,24.70
2019-01-27T03:03:44.489Z,24.40
2019-01-27T03:04:44.495Z,26.70
2019-01-27T03:05:44.497Z,27.80
2019-01-27T03:06:44.470Z,23.90
2019-01-27T03:07:44.459Z,27.00
2019-01-27T03:08:44.438Z,22.80
2019-01-27T03:09:44.483Z,22.50
2019-01-27T03:10:44.427Z,25.60
2019-01-27T03:11:44.429Z,23.00
2019-01-27T03:12:44.535Z,22.80
2019-01-27T03:13:44.391Z,22.20
2019-01-27T03:14:44.387Z,23.40
2019-01-27T03:15:44.355Z,23.40
2019-01-27T03:16:44.353Z,26.30
2019-01-27T03:17:44.365Z,23.40
2019-01-27T03:18:44.338Z,21.90
2019-01-27T03:19:44.339Z,20.70
2019-01-27T03:20:44.355Z,21.70
2019-01-27T03:21:44.294Z,21.60
2019-01-27T03:22:44.309Z,23.60
2019-01-27T03:23:44.277Z,24.00
2019-01-27T03:24:44.521Z,22.40
2019-01-27T03:25:44.255Z,23.20
2019-01-27T03:26:44.248Z,23.70
2019-01-27T03:27:44.238Z,22.10
2019-01-27T03:28:44.254Z,21.60
2019-01-27T03:29:44.210Z,21.10
2019-01-27T03:30:44.212Z,18.70
2019-01-27T03:31:44.195Z,17.20
2019-01-27T03:32:44.202Z,16.30
2019-01-27T03:33:44.171Z,19.90
2019-01-27T03:34:44.176Z,18.80
2019-01-27T03:35:44.237Z,19.00
2019-01-27T03:36:44.174Z,17.30
2019-01-27T03:37:44.133Z,18.70
2019-01-27T03:38:44.121Z,18.30
2019-01-27T03:39:44.147Z,15.80
2019-01-27T03:40:44.109Z,19.30
2019-01-27T03:41:44.098Z,16.70
2019-01-27T03:42:44.089Z,18.20
2019-01-27T03:43:44.066Z,20.10
2019-01-27T03:44:44.062Z,17.40
2019-01-27T03:45:44.087Z,15.30
2019-01-27T03:46:44.034Z,16.50
2019-01-27T03:47:44.029Z,15.20
2019-01-27T03:48:44.037Z,13.20
2019-01-27T03:49:44.037Z,17.10
2019-01-27T03:50:43.994Z,15.40
2019-01-27T03:51:44.316Z,15.00
2019-01-27T03:52:44.008Z,15.20
2019-01-27T03:53:43.978Z,15.40
2019-01-27T03:54:43.970Z,17.70
2019-01-27T03:55:44.011Z,18.40
2019-01-27T03:56:43.960Z,17.90
2019-01-27T03:57:43.929Z,16.90
2019-01-27T03:58:43.949Z,16.00
2019-01-27T03:59:43.905Z,18.80
2019-01-27T04:00:43.883Z,17.10
2019-01-27T04:01:43.869Z,19.20
2019-01-27T04:02:43.923Z,15.80
2019-01-27T04:03:43.871Z,17.80
2019-01-27T04:04:43.868Z,19.40
2019-01-27T04:05:43.846Z,17.80
2019-01-27T04:06:43.833Z,18.40
2019-01-27T04:07:44.798Z,19.80
2019-01-27T04:08:43.831Z,16.70
2019-01-27T04:09:43.819Z,18.90
2019-01-27T04:10:44.785Z,20.60
2019-01-27T04:11:43.779Z,17.00
2019-01-27T04:12:43.855Z,16.70
2019-01-27T04:13:43.757Z,17.70
2019-01-27T04:14:43.761Z,19.40
2019-01-27T04:15:43.748Z,19.10
2019-01-27T04:16:43.725Z,15.30
2019-01-27T04:17:43.722Z,19.10
2019-01-27T04:18:43.725Z,17.10
2019-01-27T04:19:43.684Z,19.30
2019-01-27T04:20:43.688Z,19.10
2019-01-27T04:21:43.663Z,18.10
2019-01-27T04:22:43.669Z,17.50
2019-01-27T04:23:43.659Z,16.50
2019-01-27T04:24:43.636Z,17.00
2019-01-27T04:25:43.618Z,17.20
2019-01-27T04:26:43.622Z,18.20
2019-01-27T04:27:43.601Z,16.70
2019-01-27T04:28:43.619Z,20.60
2019-01-27T04:29:43.605Z,18.10
2019-01-27T04:30:43.576Z,17.10
2019-01-27T04:31:43.558Z,16.50
2019-01-27T04:32:43.566Z,18.20
2019-01-27T04:33:43.541Z,19.20
2019-01-27T04:34:43.573Z,21.50
2019-01-27T04:35:43.558Z,18.30
2019-01-27T04:36:43.515Z,18.40
2019-01-27T04:37:43.500Z,17.40
2019-01-27T04:38:43.505Z,17.60
2019-01-27T04:39:43.480Z,15.30
2019-01-27T04:40:43.499Z,17.40
2019-01-27T04:41:43.502Z,17.70
2019-01-27T04:42:43.442Z,16.90
2019-01-27T04:43:43.434Z,16.10
2019-01-27T04:44:43.418Z,15.70
2019-01-27T04:45:43.418Z,17.50
2019-01-27T04:46:43.420Z,16.60
2019-01-27T04:47:43.416Z,15.80
2019-01-27T04:48:43.385Z,14.90
2019-01-27T04:49:43.378Z,19.00
2019-01-27T04:50:43.441Z,18.80
2019-01-27T04:51:43.389Z,17.50
2019-01-27T04:52:43.357Z,15.40
2019-01-27T04:53:43.332Z,18.30
2019-01-27T04:54:43.322Z,19.10
2019-01-27T04:55:43.328Z,18.30
2019-01-27T04:56:43.294Z,18.10
2019-01-27T04:57:43.315Z,15.40
2019-01-27T04:58:43.291Z,17.80
2019-01-27T04:59:43.263Z,17.50
2019-01-27T05:00:43.256Z,15.00
2019-01-27T05:01:43.261Z,15.80
2019-01-27T05:02:43.226Z,14.50
2019-01-27T05:03:43.243Z,17.30
2019-01-27T05:04:43.247Z,15.70
2019-01-27T05:05:43.202Z,17.60
2019-01-27T05:06:43.195Z,14.30
2019-01-27T05:07:43.206Z,13.30
2019-01-27T05:08:43.214Z,15.50
2019-01-27T05:09:43.208Z,14.80
2019-01-27T05:10:43.166Z,18.00
2019-01-27T05:11:43.134Z,16.20
2019-01-27T05:12:43.177Z,15.40
2019-01-27T05:13:43.140Z,15.30
2019-01-27T05:14:43.132Z,13.80
2019-01-27T05:15:43.106Z,13.50
2019-01-27T05:16:43.114Z,14.30
2019-01-27T05:17:43.087Z,12.50
2019-01-27T05:18:43.072Z,16.50
2019-01-27T05:19:43.088Z,17.40
2019-01-27T05:20:43.068Z,14.00
2019-01-27T05:21:43.055Z,14.90
2019-01-27T05:22:43.043Z,15.40
2019-01-27T05:23:43.025Z,14.30
2019-01-27T05:24:42.995Z,14.80
2019-01-27T05:25:43.007Z,17.70
2019-01-27T05:26:43.022Z,16.50
2019-01-27T05:27:42.980Z,15.20
2019-01-27T05:28:42.981Z,16.40
2019-01-27T05:29:42.939Z,18.90
2019-01-27T05:30:42.935Z,17.80
2019-01-27T05:31:42.955Z,13.70
2019-01-27T05:32:42.931Z,14.00
2019-01-27T05:33:42.922Z,13.20
2019-01-27T05:34:42.902Z,16.30
2019-01-27T05:35:42.882Z,15.90
2019-01-27T05:36:42.937Z,13.20
2019-01-27T05:37:42.912Z,13.80
2019-01-27T05:38:42.870Z,16.40
2019-01-27T05:39:42.851Z,16.30
2019-01-27T05:40:42.828Z,12.60
2019-01-27T05:41:42.823Z,15.90
2019-01-27T05:42:42.811Z,13.80
2019-01-27T05:43:42.816Z,13.90
2019-01-27T05:44:42.791Z,12.80
2019-01-27T05:45:42.799Z,14.60
2019-01-27T05:46:42.801Z,13.80
2019-01-27T05:47:42.810Z,16.10
2019-01-27T05:48:42.792Z,12.20
2019-01-27T05:49:42.783Z,13.50
2019-01-27T05:50:42.732Z,14.60
2019-01-27T05:51:42.772Z,13.10
2019-01-27T05:52:42.695Z,13.40
2019-01-27T05:53:42.721Z,15.70
2019-01-27T05:54:42.710Z,15.30
2019-01-27T05:55:42.686Z,13.40
2019-01-27T05:56:42.674Z,13.00
2019-01-27T05:57:42.671Z,14.50
2019-01-27T05:58:42.634Z,14.70
2019-01-27T05:59:42.628Z,13.60
2019-01-27T06:00:42.803Z,14.30
2019-01-27T06:01:42.651Z,14.40
2019-01-27T06:02:42.605Z,14.00
2019-01-27T06:03:42.613Z,14.60
2019-01-27T06:04:42.618Z,14.20
2019-01-27T06:05:42.624Z,13.20
2019-01-27T06:06:42.562Z,13.60
2019-01-27T06:07:42.546Z,12.90
2019-01-27T06:08:42.547Z,12.40
2019-01-27T06:09:42.553Z,14.50
2019-01-27T06:10:42.508Z,13.30
2019-01-27T06:11:42.556Z,12.50
2019-01-27T06:12:42.511Z,12.80
2019-01-27T06:13:43.328Z,14.00
2019-01-27T06:14:42.505Z,12.60
2019-01-27T06:15:42.483Z,15.50
2019-01-27T06:16:42.454Z,14.00
2019-01-27T06:17:42.506Z,12.90
2019-01-27T06:18:42.440Z,14.10
2019-01-27T06:19:42.446Z,13.70
2019-01-27T06:20:42.427Z,14.80
2019-01-27T06:21:42.435Z,14.20
2019-01-27T06:22:42.395Z,14.60
2019-01-27T06:23:42.402Z,16.90
2019-01-27T06:24:42.362Z,14.70
2019-01-27T06:25:42.362Z,14.30
2019-01-27T06:26:42.365Z,15.10
2019-01-27T06:27:42.339Z,15.50
2019-01-27T06:28:42.363Z,16.70
2019-01-27T06:29:42.313Z,13.80
2019-01-27T06:30:42.297Z,13.40
2019-01-27T06:31:42.295Z,13.40
2019-01-27T06:32:42.290Z,13.90
2019-01-27T06:33:42.317Z,13.80
2019-01-27T06:34:42.306Z,12.70
2019-01-27T06:35:42.262Z,15.20
2019-01-27T06:36:42.266Z,13.60
2019-01-27T06:37:42.241Z,12.50
2019-01-27T06:38:42.236Z,13.70
2019-01-27T06:39:42.220Z,14.30
2019-01-27T06:40:42.231Z,14.30
2019-01-27T06:41:42.196Z,14.10
2019-01-27T06:42:42.234Z,12.60
2019-01-27T06:43:42.172Z,12.80
2019-01-27T06:44:42.178Z,11.40
2019-01-27T06:45:42.187Z,13.30
2019-01-27T06:46:42.136Z,12.60
2019-01-27T06:47:42.128Z,14.80
2019-01-27T06:48:42.129Z,12.70
2019-01-27T06:49:42.118Z,14.50
2019-01-27T06:50:42.095Z,11.90
2019-01-27T06:51:42.122Z,12.70
2019-01-27T06:52:42.070Z,13.30
2019-01-27T06:53:42.073Z,13.30
2019-01-27T06:54:42.041Z,12.50
2019-01-27T06:55:42.051Z,11.60
2019-01-27T06:56:42.025Z,13.80
2019-01-27T06:57:42.061Z,12.30
2019-01-27T06:58:42.005Z,14.30
2019-01-27T06:59:41.991Z,11.80
2019-01-27T07:00:41.987Z,13.20
2019-01-27T07:01:41.989Z,16.20
2019-01-27T07:02:41.996Z,12.50
2019-01-27T07:03:42.002Z,13.10
2019-01-27T07:04:41.948Z,12.70
2019-01-27T07:05:41.937Z,13.50
2019-01-27T07:06:41.932Z,13.20
2019-01-27T07:07:41.932Z,14.50
2019-01-27T07:08:41.943Z,11.80
2019-01-27T07:09:41.905Z,14.30
2019-01-27T07:10:41.886Z,14.00
2019-01-27T07:11:41.867Z,12.00
2019-01-27T07:12:41.870Z,13.80
2019-01-27T07:13:41.853Z,16.40
2019-01-27T07:14:41.870Z,15.40
2019-01-27T07:15:41.827Z,13.30
2019-01-27T07:16:41.824Z,12.90
2019-01-27T07:17:42.768Z,15.50
2019-01-27T07:18:41.813Z,13.10
2019-01-27T07:19:41.831Z,13.10
2019-01-27T07:20:41.772Z,14.30
2019-01-27T07:21:41.784Z,12.80
2019-01-27T07:22:41.762Z,12.90
2019-01-27T07:23:41.854Z,12.70
2019-01-27T07:24:41.741Z,12.90
2019-01-27T07:25:41.764Z,12.30
2019-01-27T07:26:41.745Z,11.70
2019-01-27T07:27:41.694Z,12.20
2019-01-27T07:28:41.700Z,13.00
2019-01-27T07:29:41.697Z,14.40
2019-01-27T07:30:41.672Z,13.90
2019-01-27T07:31:41.700Z,13.90
2019-01-27T07:32:41.675Z,13.90
2019-01-27T07:33:41.689Z,14.20
2019-01-27T07:34:41.620Z,12.80
2019-01-27T07:35:41.612Z,13.80
2019-01-27T07:36:41.672Z,12.50
2019-01-27T07:37:41.624Z,12.00
2019-01-27T07:38:41.604Z,12.00
2019-01-27T07:39:41.574Z,15.80
2019-01-27T07:40:41.566Z,11.50
2019-01-27T07:41:41.553Z,12.10
2019-01-27T07:42:41.587Z,13.50
2019-01-27T07:43:41.571Z,12.90
2019-01-27T07:44:41.575Z,13.70
2019-01-27T07:45:41.511Z,13.80
2019-01-27T07:46:41.494Z,14.70
2019-01-27T07:47:41.522Z,11.40
2019-01-27T07:48:41.503Z,13.80
2019-01-27T07:49:41.474Z,12.10
2019-01-27T07:50:41.474Z,12.10
2019-01-27T07:51:41.488Z,13.50
2019-01-27T07:52:41.436Z,14.00
2019-01-27T07:53:41.534Z,15.50
2019-01-27T07:54:41.425Z,14.30
2019-01-27T07:55:41.408Z,15.50
2019-01-27T07:56:41.467Z,13.00
2019-01-27T07:57:41.392Z,13.20
2019-01-27T07:58:41.438Z,11.80
2019-01-27T07:59:41.379Z,12.70
2019-01-27T08:00:41.373Z,12.60
2019-01-27T08:01:41.378Z,11.60
2019-01-27T08:02:41.358Z,11.70
2019-01-27T08:03:41.801Z,11.30
2019-01-27T08:04:41.316Z,13.90
2019-01-27T08:05:41.349Z,11.50
2019-01-27T08:06:41.309Z,11.80
2019-01-27T08:07:41.276Z,13.90
2019-01-27T08:08:41.273Z,11.90
2019-01-27T08:09:41.279Z,11.80
2019-01-27T08:10:41.251Z,13.60
2019-01-27T08:11:41.251Z,11.60
2019-01-27T08:12:41.256Z,12.90
2019-01-27T08:13:41.219Z,12.20
2019-01-27T08:14:41.270Z,13.00
2019-01-27T08:15:41.208Z,11.50
2019-01-27T08:16:41.185Z,13.30
2019-01-27T08:17:41.196Z,14.70
2019-01-27T08:18:41.200Z,11.90
2019-01-27T08:19:41.155Z,12.30
2019-01-27T08:20:41.197Z,11.00
2019-01-27T08:21:41.138Z,10.30
2019-01-27T08:22:41.122Z,10.70
2019-01-27T08:23:41.134Z,10.90
2019-01-27T08:24:41.104Z,10.60
2019-01-27T08:25:41.087Z,10.80
2019-01-27T08:26:41.123Z,10.70
2019-01-27T08:27:41.073Z,11.20
2019-01-27T08:28:41.088Z,11.30
2019-01-27T08:29:41.058Z,10.40
2019-01-27T08:30:41.037Z,10.70
2019-01-27T08:31:41.055Z,11.00
2019-01-27T08:32:41.059Z,12.10
2019-01-27T08:33:41.018Z,10.40
2019-01-27T08:34:41.009Z,12.60
2019-01-27T08:35:40.990Z,11.80
2019-01-27T08:36:41.007Z,11.40
2019-01-27T08:37:40.964Z,11.10
2019-01-27T08:38:40.956Z,10.30
2019-01-27T08:39:40.963Z,9.30
2019-01-27T08:40:40.938Z,10.00
2019-01-27T08:41:40.920Z,11.20
2019-01-27T08:42:41.477Z,9.90
2019-01-27T08:43:40.904Z,9.60
2019-01-27T08:44:41.845Z,9.80
2019-01-27T08:45:40.904Z,10.20
2019-01-27T08:46:41.747Z,9.10
2019-01-27T08:47:40.876Z,9.60
2019-01-27T08:48:40.880Z,8.80
2019-01-27T08:49:40.886Z,10.10
2019-01-27T08:50:40.828Z,8.40
2019-01-27T08:51:40.905Z,8.50
2019-01-27T08:52:40.871Z,8.30
2019-01-27T08:53:40.824Z,8.60
2019-01-27T08:54:40.801Z,9.10
2019-01-27T08:55:40.778Z,10.50
2019-01-27T08:56:40.787Z,9.00
2019-01-27T08:57:40.816Z,9.10
2019-01-27T08:58:40.754Z,10.30
2019-01-27T08:59:40.767Z,9.20
2019-01-27T09:00:40.737Z,8.60
2019-01-27T09:01:40.742Z,10.10
2019-01-27T09:02:40.699Z,9.30
2019-01-27T09:03:40.696Z,9.30
2019-01-27T09:04:40.695Z,8.00
2019-01-27T09:05:40.701Z,8.00
2019-01-27T09:06:40.673Z,8.60
2019-01-27T09:07:40.654Z,8.10
2019-01-27T09:08:40.636Z,8.30
2019-01-27T09:09:40.635Z,7.60
2019-01-27T09:10:40.637Z,9.70
2019-01-27T09:11:40.633Z,8.80
2019-01-27T09:12:40.638Z,9.60
2019-01-27T09:13:40.592Z,8.50
2019-01-27T09:14:41.796Z,8.20
2019-01-27T09:15:40.595Z,8.10
2019-01-27T09:16:40.573Z,8.10
2019-01-27T09:17:40.547Z,8.00
2019-01-27T09:18:40.534Z,8.20
2019-01-27T09:19:40.519Z,8.20
2019-01-27T09:20:40.518Z,9.10
2019-01-27T09:21:40.525Z,7.80
2019-01-27T09:22:40.498Z,8.40
2019-01-27T09:23:40.482Z,8.00
2019-01-27T09:24:40.496Z,7.60
2019-01-27T09:25:40.457Z,9.00
2019-01-27T09:26:40.453Z,8.70
2019-01-27T09:27:40.465Z,8.80
2019-01-27T09:28:40.441Z,8.60
2019-01-27T09:29:40.427Z,7.70
2019-01-27T09:30:40.424Z,8.00
2019-01-27T09:31:40.403Z,9.90
2019-01-27T09:32:40.406Z,8.50
2019-01-27T09:33:40.379Z,10.50
2019-01-27T09:34:40.382Z,8.80
2019-01-27T09:35:40.392Z,9.60
2019-01-27T09:36:40.347Z,7.80
2019-01-27T09:37:40.357Z,7.80
2019-01-27T09:38:40.330Z,7.80
2019-01-27T09:39:40.319Z,8.20
2019-01-27T09:40:40.468Z,8.40
2019-01-27T09:41:40.295Z,8.60
2019-01-27T09:42:40.313Z,7.60
2019-01-27T09:43:40.270Z,7.90
2019-01-27T09:44:40.259Z,7.50
2019-01-27T09:45:40.264Z,8.90
2019-01-27T09:46:40.266Z,7.50
2019-01-27T09:47:40.305Z,8.40
2019-01-27T09:48:40.222Z,7.90
2019-01-27T09:49:40.223Z,7.90
2019-01-27T09:50:40.333Z,7.60
2019-01-27T09:51:40.196Z,7.40
2019-01-27T09:52:40.278Z,7.40
2019-01-27T09:53:40.181Z,7.40
2019-01-27T09:54:40.152Z,7.10
2019-01-27T09:55:40.164Z,7.20
2019-01-27T09:56:40.143Z,8.80
2019-01-27T09:57:40.152Z,8.50
2019-01-27T09:58:40.139Z,8.40
2019-01-27T09:59:40.106Z,8.10
2019-01-27T10:00:40.108Z,8.00
2019-01-27T10:01:40.081Z,7.50
2019-01-27T10:02:40.072Z,8.20
2019-01-27T10:03:40.101Z,10.00
2019-01-27T10:04:40.075Z,7.80
2019-01-27T10:05:40.189Z,7.80
2019-01-27T10:06:40.024Z,7.60
2019-01-27T10:07:40.039Z,7.80
2019-01-27T10:08:40.024Z,8.20
2019-01-27T10:09:40.077Z,8.10
2019-01-27T10:10:40.034Z,7.30
2019-01-27T10:11:39.980Z,7.40
2019-01-27T10:12:39.973Z,7.00
2019-01-27T10:13:39.960Z,7.70
2019-01-27T10:14:39.954Z,7.60
2019-01-27T10:15:39.958Z,7.70
2019-01-27T10:16:39.933Z,7.40
2019-01-27T10:17:39.915Z,7.90
2019-01-27T10:18:39.903Z,6.90
2019-01-27T10:19:39.884Z,7.60
2019-01-27T10:20:39.885Z,7.10
2019-01-27T10:21:39.899Z,7.70
2019-01-27T10:22:39.873Z,6.60
2019-01-27T10:23:39.871Z,7.80
2019-01-27T10:24:39.848Z,6.10
2019-01-27T10:25:39.822Z,7.50
2019-01-27T10:26:39.857Z,7.20
2019-01-27T10:27:39.830Z,6.60
2019-01-27T10:28:39.805Z,7.00
2019-01-27T10:29:39.817Z,6.20
2019-01-27T10:30:39.780Z,5.60
2019-01-27T10:31:39.767Z,6.30
2019-01-27T10:32:39.782Z,6.80
2019-01-27T10:33:39.768Z,5.90
2019-01-27T10:34:39.754Z,6.90
2019-01-27T10:35:42.983Z,5.90
2019-01-27T10:36:39.736Z,8.00
2019-01-27T10:37:39.697Z,6.00
2019-01-27T10:38:39.707Z,6.30
2019-01-27T10:39:39.719Z,7.50
2019-01-27T10:40:40.232Z,6.60
2019-01-27T10:41:39.768Z,6.10
2019-01-27T10:42:39.658Z,6.60
2019-01-27T10:43:39.668Z,7.30
2019-01-27T10:44:39.642Z,6.40
2019-01-27T10:45:39.660Z,6.70
2019-01-27T10:46:39.695Z,6.20
2019-01-27T10:47:39.596Z,6.90
2019-01-27T10:48:39.601Z,7.20
2019-01-27T10:49:39.615Z,9.00
2019-01-27T10:50:39.584Z,7.10
2019-01-27T10:51:39.554Z,8.60
2019-01-27T10:52:39.807Z,8.40
2019-01-27T10:53:39.604Z,8.10
2019-01-27T10:54:39.518Z,8.10
2019-01-27T10:55:39.525Z,7.30
2019-01-27T10:56:39.519Z,7.70
2019-01-27T10:57:39.531Z,9.90
2019-01-27T10:58:39.480Z,8.00
2019-01-27T10:59:39.486Z,8.60
2019-01-27T11:00:39.487Z,9.10
2019-01-27T11:01:39.464Z,7.50
2019-01-27T11:02:39.434Z,12.10
2019-01-27T11:03:40.377Z,10.70
2019-01-27T11:04:39.416Z,10.90
2019-01-27T11:05:39.405Z,7.80
2019-01-27T11:06:39.433Z,8.40
2019-01-27T11:07:39.409Z,6.90
2019-01-27T11:08:39.372Z,8.10
2019-01-27T11:09:39.360Z,7.00
2019-01-27T11:10:39.350Z,6.70
2019-01-27T11:11:39.361Z,6.60
2019-01-27T11:12:39.332Z,7.80
2019-01-27T11:13:39.331Z,7.20
2019-01-27T11:14:39.311Z,7.60
2019-01-27T11:15:39.319Z,9.60
2019-01-27T11:16:39.280Z,10.90
2019-01-27T11:17:39.320Z,9.90
2019-01-27T11:18:39.277Z,13.20
2019-01-27T11:19:39.290Z,9.80
2019-01-27T11:20:40.104Z,10.50
2019-01-27T11:21:39.275Z,11.30
2019-01-27T11:22:39.227Z,8.50
2019-01-27T11:23:39.209Z,9.50
2019-01-27T11:24:39.237Z,10.70
2019-01-27T11:25:39.188Z,7.10
2019-01-27T11:26:39.182Z,8.50
2019-01-27T11:27:39.217Z,7.70
2019-01-27T11:28:39.170Z,7.20
2019-01-27T11:29:39.148Z,7.10
2019-01-27T11:30:39.149Z,6.60
2019-01-27T11:31:40.002Z,6.90
2019-01-27T11:32:39.205Z,5.80
2019-01-27T11:33:39.134Z,7.50
2019-01-27T11:34:39.110Z,6.90
2019-01-27T11:35:39.089Z,7.20
2019-01-27T11:36:39.081Z,6.80
2019-01-27T11:37:39.150Z,10.60
2019-01-27T11:38:39.058Z,7.40
2019-01-27T11:39:39.071Z,7.70
2019-01-27T11:40:39.108Z,8.20
2019-01-27T11:41:39.023Z,8.40
2019-01-27T11:42:39.030Z,12.10
2019-01-27T11:43:38.994Z,10.50
2019-01-27T11:44:39.007Z,8.00
2019-01-27T11:45:38.983Z,8.70
2019-01-27T11:46:38.981Z,9.10
2019-01-27T11:47:38.963Z,9.50
2019-01-27T11:48:39.008Z,10.40
2019-01-27T11:49:38.937Z,9.50
2019-01-27T11:50:38.943Z,9.00
2019-01-27T11:51:38.961Z,8.10
2019-01-27T11:52:38.937Z,9.00
2019-01-27T11:53:38.897Z,9.40
2019-01-27T11:54:38.900Z,12.30
2019-01-27T11:55:38.900Z,9.70
2019-01-27T11:56:38.938Z,9.60
2019-01-27T11:57:38.911Z,7.30
2019-01-27T11:58:38.884Z,7.40
2019-01-27T11:59:38.837Z,8.40
2019-01-27T12:00:39.394Z,9.20
2019-01-27T12:01:38.811Z,8.80
2019-01-27T12:02:38.814Z,7.40
2019-01-27T12:03:38.798Z,7.50
2019-01-27T12:04:38.826Z,8.60
2019-01-27T12:05:38.791Z,7.30
2019-01-27T12:06:38.755Z,8.80
2019-01-27T12:07:38.748Z,6.70
2019-01-27T12:08:38.732Z,7.10
2019-01-27T12:09:38.731Z,7.40
2019-01-27T12:10:38.713Z,8.30
2019-01-27T12:11:38.721Z,10.10
2019-01-27T12:12:38.707Z,11.10
2019-01-27T12:13:38.684Z,9.90
2019-01-27T12:14:38.680Z,8.50
2019-01-27T12:15:38.690Z,10.00
2019-01-27T12:16:38.659Z,8.90
2019-01-27T12:17:38.686Z,7.00
2019-01-27T12:18:38.673Z,7.30
2019-01-27T12:19:40.271Z,8.90
2019-01-27T12:20:38.613Z,10.50
2019-01-27T12:21:38.602Z,8.30
2019-01-27T12:22:38.593Z,8.50
2019-01-27T12:23:38.591Z,10.00
2019-01-27T12:24:38.559Z,10.50
2019-01-27T12:25:38.572Z,10.50
2019-01-27T12:26:38.543Z,9.00
2019-01-27T12:27:38.532Z,10.20
2019-01-27T12:28:38.549Z,8.60
2019-01-27T12:29:38.528Z,8.10
2019-01-27T12:30:38.495Z,8.20
2019-01-27T12:31:38.505Z,10.50
2019-01-27T12:32:38.488Z,8.70
2019-01-27T12:33:38.485Z,10.00
2019-01-27T12:34:38.495Z,12.20
2019-01-27T12:35:38.467Z,11.20
2019-01-27T12:36:38.435Z,12.00
2019-01-27T12:37:38.429Z,13.40
2019-01-27T12:38:38.423Z,10.50
2019-01-27T12:39:38.423Z,10.30
2019-01-27T12:40:38.451Z,12.20
2019-01-27T12:41:38.413Z,15.00
2019-01-27T12:42:38.378Z,16.30
2019-01-27T12:43:38.377Z,14.70
2019-01-27T12:44:38.356Z,12.10
2019-01-27T12:45:38.376Z,15.30
2019-01-27T12:46:38.409Z,13.60
2019-01-27T12:47:38.333Z,12.50
2019-01-27T12:48:38.307Z,13.60
2019-01-27T12:49:38.305Z,13.50
2019-01-27T12:50:38.325Z,12.90
2019-01-27T12:51:38.335Z,11.40
2019-01-27T12:52:38.287Z,16.20
2019-01-27T12:53:38.287Z,20.30
2019-01-27T12:54:38.255Z,13.80
2019-01-27T12:55:38.260Z,11.50
2019-01-27T12:56:38.244Z,11.40
2019-01-27T12:57:38.230Z,10.50
2019-01-27T12:58:38.271Z,11.10
2019-01-27T12:59:38.198Z,12.00